Time,TemperatureF,DewpointF,PressureIn,WindDirection,WindDirectionDegrees,WindSpeedMPH,WindSpeedGustMPH,Humidity,HourlyPrecipIn,Conditions,Clouds,dailyrainin,SoftwareType,DateUTC
2013-03-05 00:00:00,58.1,58.1,30.08,NNW,343,0.0,0.0,100,0.00,,,0.00,Wunderground v.1.15,2013-03-05 05:00:00,
2013-03-05 00:05:00,58.3,58.3,30.08,NNW,343,0.0,0.0,100,0.00,,,0.00,Wunderground v.1.15,2013-03-05 05:05:00,
2013-03-05 00:10:00,58.4,58.4,30.08,NNW,343,0.0,0.0,100,0.00,,,0.00,Wunderground v.1.15,2013-03-05 05:10:00,
2013-03-05 00:20:00,58.1,58.1,30.07,NNW,343,0.0,0.0,100,0.00,,,0.00,Wunderground v.1.15,2013-03-05 05:20:00,
2013-03-05 00:25:00,58.3,58.3,30.07,NNW,343,0.0,0.0,100,0.00,,,0.00,Wunderground v.1.15,2013-03-05 05:25:00,
2013-03-05 00:30:00,58.3,58.3,30.07,NNW,343,0.0,0.0,100,0.00,,,0.00,Wunderground v.1.15,2013-03-05 05:30:00,
2013-03-05 00:35:00,58.3,58.3,30.07,NNW,343,0.0,0.0,100,0.00,,,0.00,Wunderground v.1.15,2013-03-05 05:35:00,
2013-03-05 00:40:00,58.6,58.6,30.07,NNW,343,0.0,0.0,100,0.00,,,0.00,Wunderground v.1.15,2013-03-05 05:40:00,
2013-03-05 00:50:00,59.2,59.2,30.07,NNW,343,0.0,0.0,100,0.00,,,0.00,Wunderground v.1.15,2013-03-05 05:50:00,
2013-03-05 00:55:00,59.5,59.5,30.07,NNW,343,0.0,0.0,100,0.00,,,0.00,Wunderground v.1.15,2013-03-05 05:55:00,
2013-03-05 01:00:00,59.6,59.6,30.07,NNW,343,0.0,0.0,100,0.00,,,0.00,Wunderground v.1.15,2013-03-05 06:00:00,
2013-03-05 01:05:00,59.8,59.8,30.07,NNW,343,0.0,0.0,100,0.00,,,0.00,Wunderground v.1.15,2013-03-05 06:05:00,
2013-03-05 01:10:00,59.9,59.9,30.07,NNW,343,0.0,0.0,100,0.00,,,0.00,Wunderground v.1.15,2013-03-05 06:10:00,
2013-03-05 01:15:00,59.9,59.9,30.06,NNW,343,0.0,0.0,100,0.00,,,0.00,Wunderground v.1.15,2013-03-05 06:15:00,
2013-03-05 01:20:00,60.1,60.1,30.06,NNW,343,0.0,0.0,100,0.00,,,0.00,Wunderground v.1.15,2013-03-05 06:20:00,
2013-03-05 01:30:00,60.1,60.1,30.06,NNW,343,0.0,0.0,100,0.00,,,0.00,Wunderground v.1.15,2013-03-05 06:30:00,
2013-03-05 01:35:00,60.2,60.2,30.06,NNW,343,0.0,0.0,100,0.00,,,0.00,Wunderground v.1.15,2013-03-05 06:35:00,
2013-03-05 01:45:00,60.5,60.5,30.06,NNW,343,0.0,0.0,100,0.00,,,0.00,Wunderground v.1.15,2013-03-05 06:45:00,
2013-03-05 01:55:00,60.5,60.5,30.06,NNW,343,0.0,0.0,100,0.00,,,0.00,Wunderground v.1.15,2013-03-05 06:55:00,
2013-03-05 02:05:00,60.5,60.5,30.05,NNW,343,0.0,0.0,100,0.00,,,0.00,Wunderground v.1.15,2013-03-05 07:05:00,
2013-03-05 02:15:00,60.5,60.5,30.05,NNW,343,0.0,0.0,100,0.00,,,0.00,Wunderground v.1.15,2013-03-05 07:15:00,
2013-03-05 02:20:00,60.5,60.5,30.05,NNW,343,0.0,0.0,100,0.00,,,0.00,Wunderground v.1.15,2013-03-05 07:20:00,
2013-03-05 02:30:00,60.2,60.2,30.05,NNW,343,0.0,0.0,100,0.00,,,0.00,Wunderground v.1.15,2013-03-05 07:30:00,
2013-03-05 02:50:00,60.4,60.4,30.05,NNW,343,0.0,0.0,100,0.00,,,0.00,Wunderground v.1.15,2013-03-05 07:50:00,
2013-03-05 02:55:00,60.4,60.4,30.05,NNW,343,0.0,0.0,100,0.00,,,0.00,Wunderground v.1.15,2013-03-05 07:55:00,
2013-03-05 03:00:00,60.4,60.4,30.04,NNW,343,0.0,0.0,100,0.00,,,0.00,Wunderground v.1.15,2013-03-05 08:00:00,
2013-03-05 03:10:00,60.5,60.5,30.04,North,350,0.0,0.0,100,0.00,,,0.00,Wunderground v.1.15,2013-03-05 08:10:00,
2013-03-05 03:15:00,60.7,60.7,30.04,North,350,0.0,0.0,100,0.00,,,0.00,Wunderground v.1.15,2013-03-05 08:15:00,
2013-03-05 03:20:00,60.7,60.7,30.04,North,350,0.0,0.0,100,0.00,,,0.00,Wunderground v.1.15,2013-03-05 08:20:00,
2013-03-05 03:25:00,60.7,60.7,30.04,North,350,0.0,0.0,100,0.00,,,0.00,Wunderground v.1.15,2013-03-05 08:25:00,
2013-03-05 03:30:00,60.7,60.7,30.04,North,350,0.0,0.0,100,0.00,,,0.00,Wunderground v.1.15,2013-03-05 08:30:00,
2013-03-05 03:35:00,60.5,60.5,30.04,North,350,0.0,0.0,100,0.00,,,0.00,Wunderground v.1.15,2013-03-05 08:35:00,
2013-03-05 03:40:00,60.5,60.5,30.04,North,350,0.0,0.0,100,0.00,,,0.00,Wunderground v.1.15,2013-03-05 08:40:00,
2013-03-05 03:45:00,60.4,60.4,30.04,North,350,0.0,0.0,100,0.00,,,0.00,Wunderground v.1.15,2013-03-05 08:45:00,
2013-03-05 03:55:00,60.5,60.5,30.04,North,350,0.0,0.0,100,0.00,,,0.00,Wunderground v.1.15,2013-03-05 08:55:00,
2013-03-05 04:05:00,60.5,60.5,30.03,North,350,0.0,0.0,100,0.00,,,0.00,Wunderground v.1.15,2013-03-05 09:05:00,
2013-03-05 04:15:00,60.2,60.2,30.03,North,350,0.0,0.0,100,0.00,,,0.00,Wunderground v.1.15,2013-03-05 09:15:00,
2013-03-05 04:20:00,60.2,60.2,30.03,North,350,0.0,0.0,100,0.00,,,0.00,Wunderground v.1.15,2013-03-05 09:20:00,
2013-03-05 04:25:00,60.2,60.2,30.03,North,350,0.0,0.0,100,0.00,,,0.00,Wunderground v.1.15,2013-03-05 09:25:00,
2013-03-05 04:30:00,60.2,60.2,30.03,North,350,0.0,0.0,100,0.00,,,0.00,Wunderground v.1.15,2013-03-05 09:30:00,
2013-03-05 04:35:00,60.4,60.4,30.03,North,350,0.0,0.0,100,0.00,,,0.00,Wunderground v.1.15,2013-03-05 09:35:00,
2013-03-05 04:40:00,60.4,60.4,30.03,North,350,0.0,0.0,100,0.00,,,0.00,Wunderground v.1.15,2013-03-05 09:40:00,
2013-03-05 04:45:00,60.4,60.4,30.04,North,350,0.0,0.0,100,0.00,,,0.00,Wunderground v.1.15,2013-03-05 09:45:00,
2013-03-05 04:50:00,60.4,60.4,30.04,North,353,0.0,0.0,100,0.00,,,0.00,Wunderground v.1.15,2013-03-05 09:50:00,
2013-03-05 05:00:00,60.4,60.4,30.04,North,353,0.0,0.0,100,0.00,,,0.00,Wunderground v.1.15,2013-03-05 10:00:00,
2013-03-05 05:10:00,60.4,60.4,30.04,North,353,0.0,0.0,100,0.00,,,0.00,Wunderground v.1.15,2013-03-05 10:10:00,
2013-03-05 05:20:00,60.4,60.4,30.05,North,354,0.0,0.0,100,0.00,,,0.00,Wunderground v.1.15,2013-03-05 10:20:00,
2013-03-05 05:25:00,60.4,60.4,30.05,North,354,0.0,4.0,100,0.00,,,0.00,Wunderground v.1.15,2013-03-05 10:25:00,
2013-03-05 05:35:00,60.4,60.4,30.05,North,354,1.0,1.0,100,0.00,,,0.00,Wunderground v.1.15,2013-03-05 10:35:00,
2013-03-05 05:45:00,60.4,60.4,30.06,North,359,1.0,1.0,100,0.00,,,0.00,Wunderground v.1.15,2013-03-05 10:45:00,
2013-03-05 05:50:00,60.5,60.5,30.06,North,0,1.0,5.0,100,0.00,,,0.00,Wunderground v.1.15,2013-03-05 10:50:00,
2013-03-05 05:55:00,60.5,60.5,30.06,North,0,0.0,5.0,100,0.00,,,0.00,Wunderground v.1.15,2013-03-05 10:55:00,
2013-03-05 06:05:00,60.5,60.5,30.06,North,359,0.0,0.0,100,0.00,,,0.00,Wunderground v.1.15,2013-03-05 11:05:00,
2013-03-05 06:15:00,60.7,60.7,30.06,North,0,1.0,1.0,100,0.00,,,0.00,Wunderground v.1.15,2013-03-05 11:15:00,
2013-03-05 06:20:00,60.7,60.7,30.06,North,1,1.0,7.0,100,0.00,,,0.00,Wunderground v.1.15,2013-03-05 11:20:00,
2013-03-05 06:30:00,60.5,60.5,30.06,North,3,1.0,1.0,100,0.00,,,0.00,Wunderground v.1.15,2013-03-05 11:30:00,
2013-03-05 06:35:00,60.5,60.5,30.06,North,3,1.0,1.0,100,0.00,,,0.00,Wunderground v.1.15,2013-03-05 11:35:00,
2013-03-05 06:45:00,60.4,60.4,30.06,North,6,0.0,0.0,100,0.00,,,0.00,Wunderground v.1.15,2013-03-05 11:45:00,
2013-03-05 06:55:00,60.2,60.2,30.06,North,6,0.0,0.0,100,0.00,,,0.00,Wunderground v.1.15,2013-03-05 11:55:00,
2013-03-05 07:00:00,60.4,60.4,30.06,North,6,0.0,0.0,100,0.00,,,0.00,Wunderground v.1.15,2013-03-05 12:00:00,
2013-03-05 07:10:00,60.5,60.5,30.06,North,6,0.0,0.0,100,0.00,,,0.00,Wunderground v.1.15,2013-03-05 12:10:00,
2013-03-05 07:20:00,60.9,60.9,30.07,North,6,1.0,5.0,100,0.00,,,0.00,Wunderground v.1.15,2013-03-05 12:20:00,
2013-03-05 07:30:00,61.8,61.8,30.07,North,10,2.0,2.0,100,0.00,,,0.00,Wunderground v.1.15,2013-03-05 12:30:00,
2013-03-05 07:35:00,62.3,62.3,30.07,North,11,2.0,5.0,100,0.00,,,0.00,Wunderground v.1.15,2013-03-05 12:35:00,
2013-03-05 07:40:00,62.7,62.7,30.07,NNE,13,2.0,2.0,100,0.00,,,0.00,Wunderground v.1.15,2013-03-05 12:40:00,
2013-03-05 07:45:00,63.2,63.2,30.07,NNE,13,1.0,2.0,100,0.00,,,0.00,Wunderground v.1.15,2013-03-05 12:45:00,
2013-03-05 07:55:00,63.9,63.9,30.07,NNE,13,1.0,6.0,100,0.00,,,0.00,Wunderground v.1.15,2013-03-05 12:55:00,
2013-03-05 08:05:00,64.2,64.2,30.08,NNE,18,3.0,7.0,100,0.00,,,0.00,Wunderground v.1.15,2013-03-05 13:05:00,
2013-03-05 08:10:00,64.2,64.2,30.08,North,11,3.0,3.0,100,0.00,,,0.00,Wunderground v.1.15,2013-03-05 13:10:00,
2013-03-05 08:15:00,64.0,64.0,30.08,NNE,13,5.0,5.0,100,0.00,,,0.00,Wunderground v.1.15,2013-03-05 13:15:00,
2013-03-05 08:20:00,64.2,64.2,30.08,NNE,27,5.0,6.0,100,0.00,,,0.00,Wunderground v.1.15,2013-03-05 13:20:00,
2013-03-05 08:25:00,64.3,64.3,30.08,NNE,24,3.0,6.0,100,0.00,,,0.00,Wunderground v.1.15,2013-03-05 13:25:00,
2013-03-05 08:30:00,64.8,64.8,30.08,NNE,31,2.0,2.0,100,0.00,,,0.00,Wunderground v.1.15,2013-03-05 13:30:00,
2013-03-05 08:35:00,65.2,65.2,30.08,NE,37,3.0,3.0,100,0.00,,,0.00,Wunderground v.1.15,2013-03-05 13:35:00,
2013-03-05 08:45:00,66.3,66.3,30.08,NE,37,1.0,3.0,100,0.00,,,0.00,Wunderground v.1.15,2013-03-05 13:45:00,
2013-03-05 08:50:00,66.4,66.4,30.08,NNE,30,2.0,2.0,100,0.00,,,0.00,Wunderground v.1.15,2013-03-05 13:50:00,
2013-03-05 08:55:00,66.6,66.6,30.08,NNE,30,2.0,2.0,100,0.00,,,0.00,Wunderground v.1.15,2013-03-05 13:55:00,
2013-03-05 09:00:00,66.8,66.8,30.08,NNE,30,1.0,1.0,100,0.00,,,0.00,Wunderground v.1.15,2013-03-05 14:00:00,
2013-03-05 09:05:00,66.8,66.8,30.08,NNE,30,2.0,2.0,100,0.00,,,0.00,Wunderground v.1.15,2013-03-05 14:05:00,
2013-03-05 09:15:00,67.4,67.4,30.08,NNE,28,1.0,7.0,100,0.00,,,0.00,Wunderground v.1.15,2013-03-05 14:15:00,
2013-03-05 09:20:00,67.6,67.6,30.08,NNE,32,1.0,1.0,100,0.00,,,0.00,Wunderground v.1.15,2013-03-05 14:20:00,
2013-03-05 09:25:00,67.6,67.6,30.08,NE,47,2.0,5.0,100,0.00,,,0.00,Wunderground v.1.15,2013-03-05 14:25:00,
2013-03-05 09:35:00,67.8,67.8,30.09,ENE,59,3.0,4.0,100,0.00,,,0.00,Wunderground v.1.15,2013-03-05 14:35:00,
2013-03-05 09:40:00,67.4,67.4,30.09,ENE,73,4.0,4.0,100,0.00,,,0.00,Wunderground v.1.15,2013-03-05 14:40:00,
2013-03-05 09:45:00,67.8,67.8,30.08,ENE,69,3.0,4.0,100,0.00,,,0.00,Wunderground v.1.15,2013-03-05 14:45:00,
2013-03-05 09:55:00,67.6,67.6,30.08,ENE,73,4.0,6.0,100,0.00,,,0.00,Wunderground v.1.15,2013-03-05 14:55:00,
2013-03-05 10:00:00,68.3,68.3,30.08,ENE,71,4.0,4.0,100,0.00,,,0.00,Wunderground v.1.15,2013-03-05 15:00:00,
2013-03-05 10:05:00,68.1,68.1,30.08,ENE,71,4.0,6.0,100,0.00,,,0.00,Wunderground v.1.15,2013-03-05 15:05:00,
2013-03-05 10:10:00,67.9,67.9,30.08,ENE,71,6.0,6.0,100,0.00,,,0.00,Wunderground v.1.15,2013-03-05 15:10:00,
2013-03-05 10:20:00,68.4,68.4,30.08,ENE,61,5.0,5.0,100,0.00,,,0.00,Wunderground v.1.15,2013-03-05 15:20:00,
2013-03-05 10:25:00,68.8,68.8,30.08,ENE,71,4.0,5.0,100,0.00,,,0.00,Wunderground v.1.15,2013-03-05 15:25:00,
2013-03-05 10:30:00,69.4,69.4,30.08,East,79,3.0,3.0,100,0.00,,,0.00,Wunderground v.1.15,2013-03-05 15:30:00,
2013-03-05 10:35:00,70.4,70.4,30.08,ESE,109,3.0,9.0,100,0.00,,,0.00,Wunderground v.1.15,2013-03-05 15:35:00,
2013-03-05 10:45:00,70.3,70.3,30.08,ESE,117,6.0,6.0,100,0.00,,,0.00,Wunderground v.1.15,2013-03-05 15:45:00,
2013-03-05 10:50:00,70.6,70.6,30.08,ESE,121,6.0,10.0,100,0.00,,,0.00,Wunderground v.1.15,2013-03-05 15:50:00,
2013-03-05 11:00:00,70.6,70.6,30.08,ESE,107,7.0,7.0,100,0.00,,,0.00,Wunderground v.1.15,2013-03-05 16:00:00,
2013-03-05 11:10:00,70.8,70.8,30.08,East,95,6.0,6.0,100,0.00,,,0.00,Wunderground v.1.15,2013-03-05 16:10:00,
2013-03-05 11:15:00,70.9,70.9,30.08,East,82,7.0,7.0,100,0.00,,,0.00,Wunderground v.1.15,2013-03-05 16:15:00,
2013-03-05 11:25:00,70.6,70.6,30.08,SE,138,7.0,9.0,100,0.00,,,0.00,Wunderground v.1.15,2013-03-05 16:25:00,
2013-03-05 11:35:00,71.3,71.3,30.08,ESE,104,6.0,8.0,100,0.00,,,0.00,Wunderground v.1.15,2013-03-05 16:35:00,
2013-03-05 11:40:00,71.5,71.5,30.08,SE,126,6.0,6.0,100,0.00,,,0.00,Wunderground v.1.15,2013-03-05 16:40:00,
2013-03-05 11:45:00,71.1,71.1,30.07,ESE,109,6.0,6.0,100,0.00,,,0.00,Wunderground v.1.15,2013-03-05 16:45:00,
2013-03-05 11:55:00,71.3,71.3,30.07,ESE,109,6.0,11.0,100,0.00,,,0.00,Wunderground v.1.15,2013-03-05 16:55:00,
2013-03-05 12:05:00,71.5,71.5,30.06,East,97,6.0,7.0,100,0.00,,,0.00,Wunderground v.1.15,2013-03-05 17:05:00,
2013-03-05 12:10:00,72.0,72.0,30.06,ESE,109,4.0,6.0,100,0.00,,,0.00,Wunderground v.1.15,2013-03-05 17:10:00,
2013-03-05 12:20:00,71.8,71.8,30.06,ESE,102,7.0,7.0,100,0.00,,,0.00,Wunderground v.1.15,2013-03-05 17:20:00,
2013-03-05 12:25:00,71.8,71.8,30.06,ESE,107,5.0,7.0,100,0.00,,,0.00,Wunderground v.1.15,2013-03-05 17:25:00,
2013-03-05 12:35:00,72.0,72.0,30.05,ESE,117,6.0,8.0,100,0.00,,,0.00,Wunderground v.1.15,2013-03-05 17:35:00,
2013-03-05 12:40:00,71.8,71.8,30.05,SSE,152,6.0,7.0,100,0.00,,,0.00,Wunderground v.1.15,2013-03-05 17:40:00,
2013-03-05 12:45:00,72.1,72.1,30.05,SE,133,6.0,7.0,100,0.00,,,0.00,Wunderground v.1.15,2013-03-05 17:45:00,
2013-03-05 12:50:00,72.1,72.1,30.05,ESE,112,5.0,9.0,100,0.00,,,0.00,Wunderground v.1.15,2013-03-05 17:50:00,
2013-03-05 13:00:00,71.8,71.8,30.05,ENE,64,5.0,7.0,100,0.00,,,0.00,Wunderground v.1.15,2013-03-05 18:00:00,
2013-03-05 13:05:00,72.5,72.5,30.05,East,99,5.0,7.0,100,0.00,,,0.00,Wunderground v.1.15,2013-03-05 18:05:00,
2013-03-05 13:15:00,72.0,72.0,30.04,ESE,110,6.0,6.0,100,0.00,,,0.00,Wunderground v.1.15,2013-03-05 18:15:00,
2013-03-05 13:20:00,72.1,72.1,30.04,East,100,7.0,8.0,100,0.00,,,0.00,Wunderground v.1.15,2013-03-05 18:20:00,
2013-03-05 13:30:00,72.0,72.0,30.03,ESE,109,7.0,7.0,100,0.00,,,0.00,Wunderground v.1.15,2013-03-05 18:30:00,
2013-03-05 13:40:00,72.1,72.1,30.03,SE,124,6.0,6.0,100,0.00,,,0.00,Wunderground v.1.15,2013-03-05 18:40:00,
2013-03-05 13:50:00,72.0,72.0,30.03,ESE,123,6.0,6.0,100,0.00,,,0.00,Wunderground v.1.15,2013-03-05 18:50:00,
2013-03-05 13:55:00,72.0,72.0,30.03,ESE,123,6.0,6.0,100,0.00,,,0.00,Wunderground v.1.15,2013-03-05 18:55:00,
2013-03-05 14:05:00,72.1,72.1,30.03,ESE,121,6.0,10.0,100,0.00,,,0.00,Wunderground v.1.15,2013-03-05 19:05:00,
2013-03-05 14:15:00,72.3,72.3,30.03,ESE,106,5.0,7.0,100,0.00,,,0.00,Wunderground v.1.15,2013-03-05 19:15:00,
2013-03-05 14:20:00,72.3,72.3,30.03,ESE,117,6.0,8.0,100,0.00,,,0.00,Wunderground v.1.15,2013-03-05 19:20:00,
2013-03-05 14:30:00,72.1,72.1,30.02,SE,124,7.0,7.0,100,0.00,,,0.00,Wunderground v.1.15,2013-03-05 19:30:00,
2013-03-05 14:35:00,72.1,72.1,30.02,East,95,6.0,7.0,100,0.00,,,0.00,Wunderground v.1.15,2013-03-05 19:35:00,
2013-03-05 14:40:00,72.8,72.8,30.02,ENE,75,4.0,4.0,100,0.00,,,0.00,Wunderground v.1.15,2013-03-05 19:40:00,
2013-03-05 14:50:00,72.7,72.7,30.02,ESE,106,3.0,6.0,100,0.00,,,0.00,Wunderground v.1.15,2013-03-05 19:50:00,
2013-03-05 14:55:00,72.3,72.3,30.02,SE,140,4.0,6.0,100,0.00,,,0.00,Wunderground v.1.15,2013-03-05 19:55:00,
2013-03-05 15:00:00,71.6,71.6,30.01,ESE,107,5.0,5.0,100,0.00,,,0.00,Wunderground v.1.15,2013-03-05 20:00:00,
2013-03-05 15:05:00,72.0,72.0,30.01,SE,128,4.0,5.0,100,0.00,,,0.00,Wunderground v.1.15,2013-03-05 20:05:00,
2013-03-05 15:10:00,72.1,72.1,30.01,SE,140,4.0,6.0,100,0.00,,,0.00,Wunderground v.1.15,2013-03-05 20:10:00,
2013-03-05 15:20:00,72.1,72.1,30.01,SE,128,6.0,6.0,100,0.00,,,0.00,Wunderground v.1.15,2013-03-05 20:20:00,
2013-03-05 15:30:00,72.3,72.3,30.01,ESE,123,4.0,5.0,100,0.00,,,0.00,Wunderground v.1.15,2013-03-05 20:30:00,
2013-03-05 15:35:00,72.8,72.8,30.01,ESE,113,3.0,5.0,100,0.00,,,0.00,Wunderground v.1.15,2013-03-05 20:35:00,
2013-03-05 15:45:00,72.5,72.5,30.01,SE,133,2.0,3.0,100,0.00,,,0.00,Wunderground v.1.15,2013-03-05 20:45:00,
2013-03-05 15:50:00,72.7,72.7,30.01,ESE,110,2.0,2.0,100,0.00,,,0.00,Wunderground v.1.15,2013-03-05 20:50:00,
2013-03-05 16:00:00,71.5,71.5,30.01,ESE,104,3.0,3.0,100,0.00,,,0.00,Wunderground v.1.15,2013-03-05 21:00:00,
2013-03-05 16:05:00,71.8,71.8,30.01,ESE,106,3.0,3.0,100,0.00,,,0.00,Wunderground v.1.15,2013-03-05 21:05:00,
2013-03-05 16:15:00,71.6,71.6,30.01,East,83,3.0,3.0,100,0.00,,,0.00,Wunderground v.1.15,2013-03-05 21:15:00,
2013-03-05 16:20:00,71.6,71.6,30.01,ESE,106,2.0,2.0,100,0.00,,,0.00,Wunderground v.1.15,2013-03-05 21:20:00,
2013-03-05 16:30:00,72.0,72.0,30.01,SE,130,2.0,2.0,100,0.00,,,0.00,Wunderground v.1.15,2013-03-05 21:30:00,
2013-03-05 16:35:00,71.8,71.8,30.01,East,99,2.0,2.0,100,0.00,,,0.00,Wunderground v.1.15,2013-03-05 21:35:00,
2013-03-05 16:40:00,71.5,71.5,30.01,ENE,73,4.0,5.0,100,0.00,,,0.00,Wunderground v.1.15,2013-03-05 21:40:00,
2013-03-05 16:50:00,72.0,72.0,30.01,East,99,1.0,3.0,100,0.00,,,0.00,Wunderground v.1.15,2013-03-05 21:50:00,
2013-03-05 16:55:00,71.5,71.5,30.01,ESE,117,2.0,3.0,100,0.00,,,0.00,Wunderground v.1.15,2013-03-05 21:55:00,
2013-03-05 17:05:00,71.6,71.6,30.01,East,96,2.0,3.0,100,0.00,,,0.00,Wunderground v.1.15,2013-03-05 22:05:00,
2013-03-05 17:10:00,71.6,71.6,30.01,East,95,1.0,1.0,100,0.00,,,0.00,Wunderground v.1.15,2013-03-05 22:10:00,
2013-03-05 17:20:00,71.5,71.5,30.01,East,99,1.0,1.0,100,0.00,,,0.00,Wunderground v.1.15,2013-03-05 22:20:00,
2013-03-05 17:25:00,71.3,71.3,30.01,East,97,1.0,1.0,100,0.00,,,0.00,Wunderground v.1.15,2013-03-05 22:25:00,
2013-03-05 17:35:00,71.3,71.3,30.02,East,97,0.0,0.0,100,0.00,,,0.00,Wunderground v.1.15,2013-03-05 22:35:00,
2013-03-05 17:45:00,71.3,71.3,30.02,East,90,0.0,0.0,100,0.00,,,0.00,Wunderground v.1.15,2013-03-05 22:45:00,
2013-03-05 17:50:00,71.1,71.1,30.02,East,92,0.0,0.0,100,0.00,,,0.00,Wunderground v.1.15,2013-03-05 22:50:00,
2013-03-05 17:55:00,70.9,70.9,30.02,East,93,0.0,0.0,100,0.00,,,0.00,Wunderground v.1.15,2013-03-05 22:55:00,
2013-03-05 18:00:00,70.8,70.8,30.02,East,93,0.0,0.0,100,0.00,,,0.00,Wunderground v.1.15,2013-03-05 23:00:00,
2013-03-05 18:05:00,70.6,70.6,30.02,East,93,0.0,0.0,100,0.00,,,0.00,Wunderground v.1.15,2013-03-05 23:05:00,
2013-03-05 18:10:00,70.4,70.4,30.02,East,93,0.0,0.0,100,0.00,,,0.00,Wunderground v.1.15,2013-03-05 23:10:00,
2013-03-05 18:15:00,70.3,70.3,30.02,East,93,0.0,0.0,100,0.00,,,0.00,Wunderground v.1.15,2013-03-05 23:15:00,
2013-03-05 18:20:00,70.1,70.1,30.02,East,93,0.0,0.0,100,0.00,,,0.00,Wunderground v.1.15,2013-03-05 23:20:00,
2013-03-05 18:25:00,69.9,69.9,30.02,East,93,0.0,0.0,100,0.00,,,0.00,Wunderground v.1.15,2013-03-05 23:25:00,
2013-03-05 18:35:00,69.4,69.4,30.03,East,93,0.0,0.0,100,0.00,,,0.00,Wunderground v.1.15,2013-03-05 23:35:00,
2013-03-05 18:40:00,69.3,69.3,30.03,East,93,0.0,0.0,100,0.00,,,0.00,Wunderground v.1.15,2013-03-05 23:40:00,
2013-03-05 18:45:00,69.1,69.1,30.02,East,93,0.0,0.0,100,0.00,,,0.00,Wunderground v.1.15,2013-03-05 23:45:00,
2013-03-05 18:55:00,68.9,68.9,30.02,East,93,0.0,0.0,100,0.00,,,0.00,Wunderground v.1.15,2013-03-05 23:55:00,
2013-03-05 19:00:00,68.8,68.8,30.03,East,93,0.0,0.0,100,0.00,,,0.00,Wunderground v.1.15,2013-03-06 00:00:00,
2013-03-05 19:05:00,68.8,68.8,30.03,East,93,0.0,0.0,100,0.00,,,0.00,Wunderground v.1.15,2013-03-06 00:05:00,
2013-03-05 19:10:00,68.6,68.6,30.03,East,93,0.0,0.0,100,0.00,,,0.00,Wunderground v.1.15,2013-03-06 00:10:00,
2013-03-05 19:15:00,68.6,68.6,30.03,East,93,0.0,0.0,100,0.00,,,0.00,Wunderground v.1.15,2013-03-06 00:15:00,
2013-03-05 19:25:00,68.6,68.6,30.03,East,93,0.0,0.0,100,0.00,,,0.00,Wunderground v.1.15,2013-03-06 00:25:00,
2013-03-05 19:30:00,68.6,68.6,30.03,East,93,0.0,0.0,100,0.00,,,0.00,Wunderground v.1.15,2013-03-06 00:30:00,
2013-03-05 19:35:00,68.6,68.6,30.03,East,93,0.0,0.0,100,0.00,,,0.00,Wunderground v.1.15,2013-03-06 00:35:00,
2013-03-05 19:45:00,68.6,68.6,30.03,East,93,0.0,0.0,100,0.00,,,0.00,Wunderground v.1.15,2013-03-06 00:45:00,
2013-03-05 19:50:00,68.6,68.6,30.03,East,93,0.0,0.0,100,0.00,,,0.00,Wunderground v.1.15,2013-03-06 00:50:00,
2013-03-05 19:55:00,68.6,68.6,30.03,East,93,0.0,0.0,100,0.00,,,0.00,Wunderground v.1.15,2013-03-06 00:55:00,
2013-03-05 20:00:00,68.6,68.6,30.03,East,85,0.0,0.0,100,0.00,,,0.00,Wunderground v.1.15,2013-03-06 01:00:00,
2013-03-05 20:10:00,68.6,68.6,30.03,East,85,0.0,0.0,100,0.00,,,0.00,Wunderground v.1.15,2013-03-06 01:10:00,
2013-03-05 20:15:00,68.4,68.4,30.04,East,85,0.0,0.0,100,0.00,,,0.00,Wunderground v.1.15,2013-03-06 01:15:00,
2013-03-05 20:20:00,68.3,68.3,30.04,East,85,0.0,0.0,100,0.00,,,0.00,Wunderground v.1.15,2013-03-06 01:20:00,
2013-03-05 20:25:00,68.1,68.1,30.04,East,85,0.0,0.0,100,0.00,,,0.00,Wunderground v.1.15,2013-03-06 01:25:00,
2013-03-05 20:30:00,67.8,67.8,30.04,East,85,0.0,0.0,100,0.00,,,0.00,Wunderground v.1.15,2013-03-06 01:30:00,
2013-03-05 20:35:00,67.6,67.6,30.04,East,85,0.0,0.0,100,0.00,,,0.00,Wunderground v.1.15,2013-03-06 01:35:00,
2013-03-05 20:45:00,67.3,67.3,30.04,East,85,0.0,0.0,100,0.00,,,0.00,Wunderground v.1.15,2013-03-06 01:45:00,
2013-03-05 20:50:00,67.4,67.4,30.04,East,85,0.0,0.0,100,0.00,,,0.00,Wunderground v.1.15,2013-03-06 01:50:00,
2013-03-05 20:55:00,67.3,67.3,30.04,East,85,0.0,0.0,100,0.00,,,0.00,Wunderground v.1.15,2013-03-06 01:55:00,
2013-03-05 21:00:00,67.1,67.1,30.05,East,85,0.0,0.0,100,0.00,,,0.00,Wunderground v.1.15,2013-03-06 02:00:00,
2013-03-05 21:05:00,66.8,66.8,30.05,East,85,0.0,0.0,100,0.00,,,0.00,Wunderground v.1.15,2013-03-06 02:05:00,
2013-03-05 21:10:00,66.4,66.4,30.05,East,85,0.0,0.0,100,0.00,,,0.00,Wunderground v.1.15,2013-03-06 02:10:00,
2013-03-05 21:15:00,66.4,66.4,30.06,East,85,0.0,0.0,100,0.00,,,0.00,Wunderground v.1.15,2013-03-06 02:15:00,
2013-03-05 21:20:00,66.6,66.6,30.06,East,85,0.0,0.0,100,0.00,,,0.00,Wunderground v.1.15,2013-03-06 02:20:00,
2013-03-05 21:25:00,66.8,66.8,30.06,East,85,0.0,0.0,100,0.00,,,0.00,Wunderground v.1.15,2013-03-06 02:25:00,
2013-03-05 21:30:00,66.8,66.8,30.06,East,85,0.0,0.0,100,0.00,,,0.00,Wunderground v.1.15,2013-03-06 02:30:00,
2013-03-05 21:40:00,66.3,66.3,30.06,East,85,0.0,0.0,100,0.00,,,0.00,Wunderground v.1.15,2013-03-06 02:40:00,
2013-03-05 21:50:00,65.8,65.8,30.06,East,85,0.0,0.0,100,0.00,,,0.00,Wunderground v.1.15,2013-03-06 02:50:00,
2013-03-05 21:55:00,65.6,65.6,30.06,East,85,0.0,0.0,100,0.00,,,0.00,Wunderground v.1.15,2013-03-06 02:55:00,
2013-03-05 22:00:00,65.5,65.5,30.06,East,85,0.0,0.0,100,0.00,,,0.00,Wunderground v.1.15,2013-03-06 03:00:00,
2013-03-05 22:05:00,65.5,65.5,30.06,East,85,0.0,0.0,100,0.00,,,0.00,Wunderground v.1.15,2013-03-06 03:05:00,
2013-03-05 22:10:00,65.6,65.6,30.06,East,85,0.0,0.0,100,0.00,,,0.00,Wunderground v.1.15,2013-03-06 03:10:00,
2013-03-05 22:20:00,65.6,65.6,30.06,East,85,0.0,0.0,100,0.00,,,0.00,Wunderground v.1.15,2013-03-06 03:20:00,
2013-03-05 22:25:00,65.5,65.5,30.06,East,85,0.0,0.0,100,0.00,,,0.00,Wunderground v.1.15,2013-03-06 03:25:00,
2013-03-05 22:30:00,65.5,65.5,30.05,East,85,0.0,0.0,100,0.00,,,0.00,Wunderground v.1.15,2013-03-06 03:30:00,
2013-03-05 22:35:00,65.5,65.5,30.05,East,85,0.0,0.0,100,0.00,,,0.00,Wunderground v.1.15,2013-03-06 03:35:00,
2013-03-05 22:45:00,65.3,65.3,30.04,East,85,0.0,0.0,100,0.00,,,0.00,Wunderground v.1.15,2013-03-06 03:45:00,
2013-03-05 22:50:00,65.2,65.2,30.04,East,85,0.0,0.0,100,0.00,,,0.00,Wunderground v.1.15,2013-03-06 03:50:00,
2013-03-05 22:55:00,64.7,64.7,30.04,East,85,0.0,0.0,100,0.00,,,0.00,Wunderground v.1.15,2013-03-06 03:55:00,
2013-03-05 23:05:00,65.2,65.2,30.04,East,85,0.0,0.0,100,0.00,,,0.00,Wunderground v.1.15,2013-03-06 04:05:00,
2013-03-05 23:10:00,65.5,65.5,30.04,East,85,0.0,0.0,100,0.00,,,0.00,Wunderground v.1.15,2013-03-06 04:10:00,
2013-03-05 23:15:00,66.0,66.0,30.03,East,85,0.0,0.0,100,0.00,,,0.00,Wunderground v.1.15,2013-03-06 04:15:00,
2013-03-05 23:20:00,65.8,65.8,30.03,East,85,0.0,0.0,100,0.00,,,0.00,Wunderground v.1.15,2013-03-06 04:20:00,
2013-03-05 23:25:00,66.0,66.0,30.03,East,85,0.0,0.0,100,0.00,,,0.00,Wunderground v.1.15,2013-03-06 04:25:00,
2013-03-05 23:30:00,65.8,65.8,30.03,East,85,0.0,0.0,100,0.00,,,0.00,Wunderground v.1.15,2013-03-06 04:30:00,
2013-03-05 23:35:00,65.8,65.8,30.03,East,85,0.0,0.0,100,0.00,,,0.00,Wunderground v.1.15,2013-03-06 04:35:00,
2013-03-05 23:40:00,66.1,66.1,30.03,East,85,0.0,0.0,100,0.00,,,0.00,Wunderground v.1.15,2013-03-06 04:40:00,
2013-03-05 23:50:00,65.8,65.8,30.03,East,85,0.0,0.0,100,0.00,,,0.00,Wunderground v.1.15,2013-03-06 04:50:00,
2013-03-05 23:55:00,66.3,66.3,30.03,East,85,0.0,0.0,100,0.00,,,0.00,Wunderground v.1.15,2013-03-06 04:55:00,